createdAt,value
2018-08-24T00:02:21.742Z,18.20
2018-08-24T00:04:51.178Z,18.20
2018-08-24T00:07:20.557Z,18.20
2018-08-24T00:09:51.396Z,18.20
2018-08-24T00:12:21.184Z,18.20
2018-08-24T00:14:50.515Z,18.20
2018-08-24T00:17:25.026Z,18.20
2018-08-24T00:19:54.395Z,18.30
2018-08-24T00:22:23.714Z,18.20
2018-08-24T00:24:53.332Z,18.20
2018-08-24T00:27:22.650Z,18.20
2018-08-24T00:29:53.122Z,18.20
2018-08-24T00:32:22.453Z,18.20
2018-08-24T00:34:52.938Z,18.20
2018-08-24T00:37:22.275Z,18.20
2018-08-24T00:39:51.691Z,18.20
2018-08-24T00:42:21.002Z,18.20
2018-08-24T00:44:50.283Z,18.20
2018-08-24T00:47:19.564Z,18.10
2018-08-24T00:49:48.884Z,18.10
2018-08-24T00:52:18.182Z,18.10
2018-08-24T00:54:47.482Z,18.10
2018-08-24T00:57:16.818Z,18.10
2018-08-24T00:59:46.087Z,18.20
2018-08-24T01:02:15.401Z,18.20
2018-08-24T01:04:44.682Z,18.20
2018-08-24T01:07:14.829Z,18.30
2018-08-24T01:09:44.173Z,18.30
2018-08-24T01:12:14.560Z,18.30
2018-08-24T01:14:48.235Z,18.30
2018-08-24T01:17:22.812Z,18.30
2018-08-24T01:19:52.127Z,18.30
2018-08-24T01:22:21.410Z,18.40
2018-08-24T01:24:50.686Z,18.40
2018-08-24T01:27:19.994Z,18.40
2018-08-24T01:29:49.323Z,18.70
2018-08-24T01:32:18.610Z,18.80
2018-08-24T01:34:47.919Z,19.00
2018-08-24T01:37:17.185Z,19.10
2018-08-24T01:39:46.482Z,19.20
2018-08-24T01:42:15.730Z,19.30
2018-08-24T01:44:45.019Z,19.30
2018-08-24T01:47:14.306Z,19.30
2018-08-24T01:49:43.614Z,19.40
2018-08-24T01:52:12.966Z,19.40
2018-08-24T01:54:42.266Z,19.40
2018-08-24T01:57:11.575Z,19.40
2018-08-24T01:59:40.857Z,19.40
2018-08-24T02:02:10.152Z,19.40
2018-08-24T02:04:39.435Z,19.40
2018-08-24T02:07:08.717Z,19.40
2018-08-24T02:09:38.062Z,19.40
2018-08-24T02:12:11.430Z,19.40
2018-08-24T02:14:40.787Z,19.30
2018-08-24T02:17:15.431Z,19.20
2018-08-24T02:19:49.878Z,19.20
2018-08-24T02:22:19.596Z,19.10
2018-08-24T02:24:48.953Z,19.10
2018-08-24T02:27:18.259Z,19.10
2018-08-24T02:29:47.568Z,19.10
2018-08-24T02:32:16.909Z,19.00
2018-08-24T02:34:46.201Z,19.10
2018-08-24T02:37:15.504Z,19.00
2018-08-24T02:39:44.802Z,19.00
2018-08-24T02:42:14.102Z,19.00
2018-08-24T02:44:43.424Z,19.00
2018-08-24T02:47:13.958Z,18.90
2018-08-24T02:49:43.753Z,18.90
2018-08-24T02:52:13.037Z,18.80
2018-08-24T02:54:42.316Z,18.80
2018-08-24T02:57:11.691Z,18.70
2018-08-24T02:59:40.930Z,18.70
2018-08-24T03:02:10.237Z,18.60
2018-08-24T03:04:39.518Z,18.60
2018-08-24T03:07:08.966Z,18.50
2018-08-24T03:09:38.266Z,18.50
2018-08-24T03:12:07.885Z,18.50
2018-08-24T03:14:37.216Z,18.50
2018-08-24T03:17:12.147Z,18.50
2018-08-24T03:19:41.558Z,18.40
2018-08-24T03:22:10.882Z,18.50
2018-08-24T03:24:40.230Z,18.50
2018-08-24T03:27:09.520Z,18.60
2018-08-24T03:29:38.791Z,18.70
2018-08-24T03:32:08.429Z,18.80
2018-08-24T03:34:37.720Z,18.80
2018-08-24T03:37:07.676Z,18.80
2018-08-24T03:39:36.984Z,18.90
2018-08-24T03:42:06.432Z,18.90
2018-08-24T03:44:35.737Z,18.90
2018-08-24T03:47:05.066Z,18.90
2018-08-24T03:49:34.448Z,18.90
2018-08-24T03:52:03.712Z,18.80
2018-08-24T03:54:33.016Z,18.80
2018-08-24T03:57:02.373Z,18.80
2018-08-24T03:59:31.642Z,18.80
2018-08-24T04:02:01.173Z,18.70
2018-08-24T04:04:30.489Z,18.60
2018-08-24T04:06:59.807Z,18.60
2018-08-24T04:09:29.092Z,18.50
2018-08-24T04:11:58.440Z,18.50
2018-08-24T04:14:27.717Z,18.40
2018-08-24T04:17:02.287Z,18.40
2018-08-24T04:19:31.653Z,18.30
2018-08-24T04:22:00.877Z,18.30
2018-08-24T04:24:30.165Z,18.30
2018-08-24T04:26:59.489Z,18.30
2018-08-24T04:29:28.806Z,18.30
2018-08-24T04:31:58.163Z,18.30
2018-08-24T04:34:27.467Z,18.30
2018-08-24T04:36:56.997Z,18.20
2018-08-24T04:39:26.348Z,18.20
2018-08-24T04:41:55.641Z,18.20
2018-08-24T04:44:24.972Z,18.20
2018-08-24T04:46:54.280Z,18.30
2018-08-24T04:49:23.617Z,18.30
2018-08-24T04:51:52.942Z,18.40
2018-08-24T04:54:22.231Z,18.40
2018-08-24T04:56:51.555Z,18.50
2018-08-24T04:59:20.890Z,18.60
2018-08-24T05:01:50.215Z,18.60
2018-08-24T05:04:19.498Z,18.70
2018-08-24T05:06:48.826Z,18.70
2018-08-24T05:09:18.175Z,18.80
2018-08-24T05:11:47.456Z,18.90
2018-08-24T05:14:16.947Z,19.00
2018-08-24T05:16:46.202Z,19.10
2018-08-24T05:19:15.666Z,19.20
2018-08-24T05:21:45.047Z,19.30
2018-08-24T05:24:14.370Z,19.50
2018-08-24T05:26:43.655Z,19.50
2018-08-24T05:29:14.022Z,19.40
2018-08-24T05:31:44.416Z,19.70
2018-08-24T05:34:13.702Z,19.80
2018-08-24T05:36:42.986Z,19.90
2018-08-24T05:39:12.307Z,19.90
2018-08-24T05:41:41.715Z,20.00
2018-08-24T05:44:11.595Z,20.10
2018-08-24T05:46:41.203Z,20.20
2018-08-24T05:49:10.733Z,20.20
2018-08-24T05:51:40.118Z,20.20
2018-08-24T05:54:09.513Z,20.30
2018-08-24T05:56:38.893Z,20.40
2018-08-24T05:59:08.207Z,20.50
2018-08-24T06:01:38.484Z,20.50
2018-08-24T06:04:07.770Z,20.60
2018-08-24T06:06:37.037Z,20.60
2018-08-24T06:09:16.681Z,20.60
2018-08-24T06:11:46.277Z,20.60
2018-08-24T06:14:15.714Z,20.60
2018-08-24T06:16:50.305Z,20.60
2018-08-24T06:19:20.837Z,20.60
2018-08-24T06:21:50.678Z,20.60
2018-08-24T06:24:20.496Z,20.70
2018-08-24T06:26:50.025Z,20.60
2018-08-24T06:29:19.307Z,20.60
2018-08-24T06:31:48.594Z,20.60
2018-08-24T06:34:17.953Z,20.60
2018-08-24T06:36:47.200Z,20.60
2018-08-24T06:39:16.495Z,20.70
2018-08-24T06:41:45.799Z,20.90
2018-08-24T06:44:15.095Z,21.10
2018-08-24T06:46:44.395Z,21.40
2018-08-24T06:49:13.709Z,21.50
2018-08-24T06:51:43.049Z,21.50
2018-08-24T06:54:12.350Z,21.60
2018-08-24T06:56:41.635Z,21.90
2018-08-24T06:59:10.936Z,21.90
2018-08-24T07:01:40.242Z,22.00
2018-08-24T07:04:09.578Z,22.00
2018-08-24T07:06:38.939Z,22.00
2018-08-24T07:09:08.944Z,22.10
2018-08-24T07:11:38.227Z,22.10
2018-08-24T07:14:07.571Z,22.00
2018-08-24T07:16:36.852Z,21.90
2018-08-24T07:19:06.190Z,21.80
2018-08-24T07:21:35.500Z,21.80
2018-08-24T07:24:04.869Z,21.80
2018-08-24T07:26:34.236Z,21.90
2018-08-24T07:29:03.527Z,21.90
2018-08-24T07:31:32.892Z,21.90
2018-08-24T07:34:02.374Z,22.10
2018-08-24T07:36:31.663Z,22.10
2018-08-24T07:39:00.965Z,22.10
2018-08-24T07:41:30.444Z,22.20
2018-08-24T07:43:59.634Z,22.20
2018-08-24T07:46:29.344Z,22.20
2018-08-24T07:48:58.631Z,22.30
2018-08-24T07:51:28.426Z,22.50
2018-08-24T07:53:57.754Z,22.60
2018-08-24T07:56:29.113Z,22.50
2018-08-24T07:59:05.146Z,22.50
2018-08-24T08:01:34.466Z,22.70
2018-08-24T08:04:04.791Z,22.30
2018-08-24T08:06:34.501Z,22.00
2018-08-24T08:09:04.993Z,21.80
2018-08-24T08:11:40.423Z,21.80
2018-08-24T08:14:10.191Z,21.60
2018-08-24T08:16:39.494Z,21.60
2018-08-24T08:19:08.787Z,21.50
2018-08-24T08:21:38.099Z,21.30
2018-08-24T08:24:07.434Z,21.30
2018-08-24T08:26:36.810Z,21.60
2018-08-24T08:29:06.190Z,22.10
2018-08-24T08:31:35.594Z,22.60
2018-08-24T08:34:04.911Z,23.10
2018-08-24T08:36:34.389Z,23.50
2018-08-24T08:39:03.715Z,23.60
2018-08-24T08:41:33.858Z,23.70
2018-08-24T08:44:03.146Z,23.80
2018-08-24T08:46:32.414Z,23.70
2018-08-24T08:49:01.798Z,23.80
2018-08-24T08:51:31.224Z,23.70
2018-08-24T08:54:00.541Z,23.90
2018-08-24T08:56:29.859Z,24.10
2018-08-24T08:58:59.142Z,23.90
2018-08-24T09:01:28.538Z,23.80
2018-08-24T09:03:57.843Z,23.80
2018-08-24T09:06:27.244Z,24.00
2018-08-24T09:08:56.500Z,24.20
2018-08-24T09:11:25.874Z,24.30
2018-08-24T09:13:55.152Z,24.20
2018-08-24T09:16:24.506Z,24.20
2018-08-24T09:18:58.897Z,24.10
2018-08-24T09:21:33.715Z,24.20
2018-08-24T09:24:08.108Z,24.50
2018-08-24T09:26:43.002Z,25.00
2018-08-24T09:29:17.578Z,25.10
2018-08-24T09:31:46.890Z,24.90
2018-08-24T09:34:16.258Z,24.80
2018-08-24T09:36:45.568Z,24.50
2018-08-24T09:39:15.183Z,24.40
2018-08-24T09:41:44.587Z,24.20
2018-08-24T09:44:14.130Z,23.90
2018-08-24T09:46:48.563Z,23.60
2018-08-24T09:49:23.225Z,23.10
2018-08-24T09:51:52.681Z,22.90
2018-08-24T09:54:21.993Z,22.50
2018-08-24T09:56:51.821Z,22.10
2018-08-24T09:59:21.681Z,21.90
2018-08-24T10:01:56.126Z,21.80
2018-08-24T10:04:30.748Z,21.70
2018-08-24T10:07:05.319Z,21.80
2018-08-24T10:09:34.667Z,21.90
2018-08-24T10:12:04.018Z,22.20
2018-08-24T10:14:33.320Z,22.70
2018-08-24T10:17:02.681Z,22.80
2018-08-24T10:19:31.998Z,23.00
2018-08-24T10:22:01.259Z,23.20
2018-08-24T10:24:30.650Z,23.30
2018-08-24T10:26:59.938Z,23.50
2018-08-24T10:31:58.267Z,23.50
2018-08-24T10:34:27.659Z,23.70
2018-08-24T10:36:57.061Z,23.80
2018-08-24T10:39:26.387Z,24.20
2018-08-24T10:41:55.717Z,24.60
2018-08-24T10:44:25.013Z,24.90
2018-08-24T10:46:54.342Z,25.30
2018-08-24T10:49:23.946Z,24.80
2018-08-24T10:51:53.189Z,23.70
2018-08-24T10:54:22.541Z,22.50
2018-08-24T10:56:51.846Z,21.60
2018-08-24T10:59:21.147Z,21.00
2018-08-24T11:01:50.420Z,20.50
2018-08-24T11:04:19.717Z,19.90
2018-08-24T11:06:49.010Z,19.50
2018-08-24T11:09:18.342Z,19.10
2018-08-24T11:11:47.602Z,18.80
2018-08-24T11:14:16.886Z,18.60
2018-08-24T11:16:46.188Z,18.20
2018-08-24T11:19:15.445Z,17.90
2018-08-24T11:21:45.159Z,17.80
2018-08-24T11:24:14.525Z,17.80
2018-08-24T11:26:44.666Z,17.80
2018-08-24T11:29:14.052Z,17.70
2018-08-24T11:31:43.878Z,17.80
2018-08-24T11:34:13.245Z,17.80
2018-08-24T11:36:43.134Z,17.90
2018-08-24T11:39:12.414Z,17.60
2018-08-24T11:41:42.584Z,17.60
2018-08-24T11:44:11.902Z,17.60
2018-08-24T11:46:41.358Z,17.60
2018-08-24T11:49:10.894Z,17.80
2018-08-24T11:51:40.230Z,17.90
2018-08-24T11:54:09.563Z,18.10
2018-08-24T11:56:38.991Z,18.30
2018-08-24T11:59:08.276Z,18.30
2018-08-24T12:01:37.557Z,18.60
2018-08-24T12:04:06.971Z,18.90
2018-08-24T12:06:36.481Z,19.20
2018-08-24T12:09:08.810Z,19.20
2018-08-24T12:11:38.167Z,19.40
2018-08-24T12:14:07.566Z,19.50
2018-08-24T12:16:36.857Z,19.90
2018-08-24T12:19:06.584Z,20.20
2018-08-24T12:21:36.330Z,20.40
2018-08-24T12:24:05.861Z,20.20
2018-08-24T12:26:35.272Z,20.20
2018-08-24T12:29:04.952Z,20.00
2018-08-24T12:31:34.429Z,19.90
2018-08-24T12:34:03.762Z,19.80
2018-08-24T12:36:33.024Z,19.80
2018-08-24T12:39:02.381Z,19.90
2018-08-24T12:41:31.662Z,19.80
2018-08-24T12:44:00.949Z,20.00
2018-08-24T12:46:30.272Z,20.10
2018-08-24T12:48:59.582Z,20.00
2018-08-24T12:51:28.988Z,19.80
2018-08-24T12:53:58.262Z,19.60
2018-08-24T12:56:27.710Z,19.10
2018-08-24T12:58:57.033Z,18.70
2018-08-24T13:01:26.394Z,18.60
2018-08-24T13:03:55.670Z,18.50
2018-08-24T13:06:24.943Z,18.40
2018-08-24T13:08:54.254Z,18.20
2018-08-24T13:11:23.547Z,18.00
2018-08-24T13:13:52.840Z,18.00
2018-08-24T13:16:22.165Z,17.90
2018-08-24T13:18:51.493Z,17.90
2018-08-24T13:21:20.952Z,17.70
2018-08-24T13:24:04.878Z,17.50
2018-08-24T13:26:34.187Z,17.50
2018-08-24T13:29:03.542Z,17.40
2018-08-24T13:31:32.884Z,17.40
2018-08-24T13:34:02.206Z,17.40
2018-08-24T13:36:31.606Z,17.30
2018-08-24T13:39:00.983Z,17.40
2018-08-24T13:41:30.311Z,17.50
2018-08-24T13:44:03.031Z,17.70
2018-08-24T13:46:32.434Z,18.00
2018-08-24T13:49:01.938Z,18.20
2018-08-24T13:51:31.631Z,18.30
2018-08-24T13:54:01.079Z,18.40
2018-08-24T13:56:30.616Z,18.60
2018-08-24T13:59:00.411Z,18.80
2018-08-24T14:01:30.124Z,18.90
2018-08-24T14:03:59.860Z,19.00
2018-08-24T14:06:29.631Z,18.90
2018-08-24T14:08:59.335Z,19.00
2018-08-24T14:11:28.900Z,19.10
2018-08-24T14:13:58.260Z,19.10
2018-08-24T14:16:27.872Z,19.20
2018-08-24T14:18:57.275Z,19.20
2018-08-24T14:21:26.739Z,19.30
2018-08-24T14:26:25.376Z,19.30
2018-08-24T14:28:54.760Z,19.20
2018-08-24T14:31:24.470Z,19.10
2018-08-24T14:33:54.109Z,19.10
2018-08-24T14:36:23.559Z,19.10
2018-08-24T14:38:53.084Z,19.10
2018-08-24T14:41:22.526Z,19.10
2018-08-24T14:43:52.918Z,19.10
2018-08-24T14:46:22.483Z,18.90
2018-08-24T14:48:52.936Z,18.90
2018-08-24T14:51:22.437Z,18.80
2018-08-24T14:53:52.307Z,18.80
2018-08-24T14:56:21.724Z,18.70
2018-08-24T14:58:53.282Z,18.60
2018-08-24T15:01:22.859Z,18.60
2018-08-24T15:03:54.550Z,18.60
2018-08-24T15:06:23.934Z,18.40
2018-08-24T15:08:54.387Z,18.40
2018-08-24T15:11:23.882Z,18.30
2018-08-24T15:13:54.123Z,18.20
2018-08-24T15:16:23.635Z,18.20
2018-08-24T15:18:53.503Z,18.30
2018-08-24T15:21:22.949Z,18.30
2018-08-24T15:23:53.607Z,18.20
2018-08-24T15:26:23.006Z,18.30
2018-08-24T15:28:53.029Z,18.20
2018-08-24T15:31:22.350Z,18.20
2018-08-24T15:33:52.253Z,18.20
2018-08-24T15:36:21.659Z,18.30
2018-08-24T15:38:51.115Z,18.30
2018-08-24T15:41:20.572Z,18.40
2018-08-24T15:43:50.098Z,18.30
2018-08-24T15:46:19.497Z,18.20
2018-08-24T15:48:49.117Z,18.20
2018-08-24T15:51:18.548Z,18.10
2018-08-24T15:53:47.989Z,18.00
2018-08-24T15:56:17.369Z,18.10
2018-08-24T15:58:46.744Z,18.20
2018-08-24T16:01:16.227Z,18.10
2018-08-24T16:03:45.747Z,18.10
2018-08-24T16:06:15.430Z,18.00
2018-08-24T16:08:52.444Z,18.00
2018-08-24T16:11:38.366Z,18.00
2018-08-24T16:14:08.061Z,18.00
2018-08-24T16:16:37.994Z,18.00
2018-08-24T16:19:07.272Z,18.10
2018-08-24T16:21:36.598Z,18.10
2018-08-24T16:24:05.925Z,18.10
2018-08-24T16:26:35.287Z,18.20
2018-08-24T16:29:04.711Z,18.20
2018-08-24T16:31:34.098Z,18.30
2018-08-24T16:34:03.491Z,18.30
2018-08-24T16:36:32.847Z,18.20
2018-08-24T16:39:02.159Z,18.10
2018-08-24T16:41:32.378Z,18.00
2018-08-24T16:44:01.754Z,17.90
2018-08-24T16:46:31.399Z,17.90
2018-08-24T16:49:00.765Z,17.80
2018-08-24T16:51:30.082Z,17.80
2018-08-24T16:53:59.476Z,17.80
2018-08-24T16:56:28.770Z,17.70
2018-08-24T16:58:58.162Z,17.70
2018-08-24T17:01:27.462Z,17.70
2018-08-24T17:03:57.103Z,17.60
2018-08-24T17:06:26.404Z,17.60
2018-08-24T17:08:55.835Z,17.50
2018-08-24T17:11:25.191Z,17.50
2018-08-24T17:13:54.550Z,17.50
2018-08-24T17:16:23.823Z,17.40
2018-08-24T17:18:53.224Z,17.40
2018-08-24T17:21:22.533Z,17.40
2018-08-24T17:23:51.949Z,17.40
2018-08-24T17:26:21.256Z,17.40
2018-08-24T17:28:50.647Z,17.30
2018-08-24T17:31:20.034Z,17.20
2018-08-24T17:33:49.368Z,17.20
2018-08-24T17:36:18.734Z,17.10
2018-08-24T17:38:48.045Z,17.10
2018-08-24T17:43:46.425Z,17.10
2018-08-24T17:46:15.851Z,17.10
2018-08-24T17:48:45.171Z,17.00
2018-08-24T17:51:14.413Z,17.10
2018-08-24T17:53:43.819Z,17.10
2018-08-24T17:56:13.198Z,17.10
2018-08-24T17:58:42.470Z,17.10
2018-08-24T18:01:11.874Z,17.10
2018-08-24T18:03:41.210Z,17.10
2018-08-24T18:06:10.596Z,17.00
2018-08-24T18:08:39.865Z,17.00
2018-08-24T18:11:09.359Z,17.00
2018-08-24T18:13:38.637Z,17.00
2018-08-24T18:16:07.999Z,16.90
2018-08-24T18:18:37.453Z,16.90
2018-08-24T18:21:06.976Z,16.80
2018-08-24T18:23:36.374Z,16.80
2018-08-24T18:26:05.846Z,16.70
2018-08-24T18:28:35.242Z,16.60
2018-08-24T18:31:04.620Z,16.60
2018-08-24T18:33:33.996Z,16.60
2018-08-24T18:36:03.460Z,16.60
2018-08-24T18:38:32.841Z,16.60
2018-08-24T18:41:02.173Z,16.50
2018-08-24T18:43:31.548Z,16.60
2018-08-24T18:46:01.956Z,16.50
2018-08-24T18:48:31.286Z,16.50
2018-08-24T18:51:00.622Z,16.50
2018-08-24T18:53:29.986Z,16.50
2018-08-24T18:55:59.384Z,16.50
2018-08-24T18:58:28.774Z,16.50
2018-08-24T19:00:58.156Z,16.50
2018-08-24T19:03:27.761Z,16.50
2018-08-24T19:05:57.134Z,16.50
2018-08-24T19:08:26.471Z,16.40
2018-08-24T19:11:01.149Z,16.40
2018-08-24T19:13:30.501Z,16.40
2018-08-24T19:15:59.893Z,16.40
2018-08-24T19:18:34.380Z,16.40
2018-08-24T19:21:08.849Z,16.40
2018-08-24T19:23:38.262Z,16.40
2018-08-24T19:26:07.571Z,16.30
2018-08-24T19:28:42.166Z,16.30
2018-08-24T19:31:11.492Z,16.30
2018-08-24T19:33:40.885Z,16.30
2018-08-24T19:36:10.199Z,16.20
2018-08-24T19:38:39.490Z,16.20
2018-08-24T19:41:14.018Z,16.20
2018-08-24T19:43:43.351Z,16.20
2018-08-24T19:46:12.674Z,16.20
2018-08-24T19:48:47.170Z,16.20
2018-08-24T19:51:16.513Z,16.20
2018-08-24T19:53:45.853Z,16.20
2018-08-24T19:56:16.297Z,16.20
2018-08-24T19:58:51.041Z,16.10
2018-08-24T20:01:20.290Z,16.00
2018-08-24T20:03:49.677Z,16.10
2018-08-24T20:06:24.049Z,16.10
2018-08-24T20:08:58.647Z,16.10
2018-08-24T20:11:27.992Z,16.00
2018-08-24T20:13:57.294Z,16.00
2018-08-24T20:16:31.838Z,16.10
2018-08-24T20:19:01.194Z,16.10
2018-08-24T20:21:30.518Z,16.10
2018-08-24T20:23:59.851Z,16.10
2018-08-24T20:26:29.173Z,16.10
2018-08-24T20:28:59.511Z,16.10
2018-08-24T20:31:28.837Z,16.10
2018-08-24T20:33:58.257Z,16.10
2018-08-24T20:36:27.723Z,16.10
2018-08-24T20:38:57.197Z,16.10
2018-08-24T20:41:26.503Z,16.10
2018-08-24T20:43:55.861Z,16.10
2018-08-24T20:46:25.163Z,16.20
2018-08-24T20:48:54.527Z,16.20
2018-08-24T20:51:23.822Z,16.10
2018-08-24T20:53:53.169Z,16.10
2018-08-24T20:56:22.550Z,16.10
2018-08-24T20:58:51.910Z,16.20
2018-08-24T21:01:21.310Z,16.20
2018-08-24T21:03:50.682Z,16.20
2018-08-24T21:06:20.055Z,16.20
2018-08-24T21:08:49.429Z,16.20
2018-08-24T21:11:18.771Z,16.20
2018-08-24T21:13:48.173Z,16.30
2018-08-24T21:16:18.649Z,16.30
2018-08-24T21:18:48.986Z,16.30
2018-08-24T21:21:19.084Z,16.30
2018-08-24T21:23:49.463Z,16.30
2018-08-24T21:26:19.894Z,16.20
2018-08-24T21:28:49.823Z,16.20
2018-08-24T21:31:20.260Z,16.20
2018-08-24T21:33:50.813Z,16.20
2018-08-24T21:36:20.863Z,16.20
2018-08-24T21:38:51.615Z,16.20
2018-08-24T21:41:22.008Z,16.10
2018-08-24T21:43:51.381Z,16.00
2018-08-24T21:46:20.733Z,16.00
2018-08-24T21:48:50.075Z,16.00
2018-08-24T21:51:19.405Z,16.00
2018-08-24T21:53:48.836Z,16.00
2018-08-24T21:56:18.156Z,15.90
2018-08-24T21:58:47.542Z,15.90
2018-08-24T22:01:16.856Z,15.90
2018-08-24T22:03:46.180Z,15.90
2018-08-24T22:06:15.447Z,15.90
2018-08-24T22:08:44.774Z,15.90
2018-08-24T22:11:14.103Z,15.80
2018-08-24T22:13:43.428Z,15.80
2018-08-24T22:16:12.740Z,15.70
2018-08-24T22:18:42.047Z,15.70
2018-08-24T22:21:11.374Z,15.60
2018-08-24T22:23:41.059Z,15.60
2018-08-24T22:26:10.455Z,15.50
2018-08-24T22:28:39.834Z,15.40
2018-08-24T22:31:09.251Z,15.30
2018-08-24T22:33:38.540Z,15.20
2018-08-24T22:36:07.866Z,15.00
2018-08-24T22:38:37.183Z,14.90
2018-08-24T22:41:06.869Z,14.80
2018-08-24T22:43:37.217Z,14.80
2018-08-24T22:46:06.523Z,14.70
2018-08-24T22:48:35.789Z,14.60
2018-08-24T22:51:05.557Z,14.60
2018-08-24T22:53:34.928Z,14.50
2018-08-24T22:56:04.181Z,14.40
2018-08-24T22:58:33.489Z,14.40
2018-08-24T23:01:02.769Z,14.30
2018-08-24T23:03:32.030Z,14.30
2018-08-24T23:06:01.363Z,14.20
2018-08-24T23:08:30.703Z,14.10
2018-08-24T23:11:00.058Z,14.00
2018-08-24T23:13:29.330Z,14.00
2018-08-24T23:15:58.610Z,14.00
2018-08-24T23:18:27.908Z,14.00
2018-08-24T23:20:57.266Z,14.00
2018-08-24T23:23:26.582Z,13.90
2018-08-24T23:25:55.904Z,13.90
2018-08-24T23:28:25.219Z,13.80
2018-08-24T23:30:54.562Z,13.80
2018-08-24T23:33:23.881Z,13.80
2018-08-24T23:35:53.186Z,13.70
2018-08-24T23:38:22.490Z,13.70
2018-08-24T23:40:51.874Z,13.60
2018-08-24T23:43:21.224Z,13.50
2018-08-24T23:45:50.582Z,13.40
2018-08-24T23:48:19.849Z,13.40
2018-08-24T23:50:49.127Z,13.30
2018-08-24T23:53:18.427Z,13.30
2018-08-24T23:55:47.718Z,13.30
2018-08-24T23:58:17.121Z,13.30
